Aeroporto :
LOGIN :

Iscrizione | Disclaimer

   EN    FR    IT 

 










Sommario :    VFR   VFR Marginale   IFR   IFR Intensivo   IFR Molto Intensivo
Visibilità : 
Base nubi : 
>= 8 km
>= 3000ft
5 / 8 km
1000 / 3000 ft
1500m / 5 km
500 / 1000 ft
800 / 1500m
200 / 500 ft
< 800m
< 200 ft
Simboli :   Temporali  Nebbia  Neve Forte  Precipitazioni Forti  Vento > 20 kt
SIGMETs :   Varie  Temporali  Ghiacco  Turbolenza  Onda orograficha  Ceneri Vulcaniche






- Altitudine del aeroporto : 1046 ft
- Codice IATA : NUE


EDDN - Nuremberg

ULTIMO METAR :
  • 311720Z 03007KT CAVOK 17/04 Q1021 NOSIG

METARs OBSOLETI :
  • 311650Z 04008KT 010V080 CAVOK 18/06 Q1021 NOSIG
  • 311620Z 01007KT 340V060 CAVOK 18/05 Q1020 NOSIG
  • 311550Z 02009KT 340V050 CAVOK 18/05 Q1020 NOSIG
  • 311520Z 03009KT 350V050 CAVOK 18/04 Q1020 NOSIG

TAF TAF EDDN
Valido dal 31 a 18 ore il 01 a 18 ore UTC


311700Z 3118/0118 04005KT CAVOK
BECMG 3118/3120 VRB03KT
BECMG 0107/0109 06008KT



MetMap, La meteo Aeronautica in un colpo d'occhio ! - Copyright ORBIFLY Dicembre 2007 - Disclaimer

ORBIFLY MET'MAP TEAM :

Programmazione e sviluppo : Alexandra Zaïnal
Concezione : Baudouin d'Aumeries
Aiuto per la programmazione : Marc-Olivier Méhu
Supporto tecnico e logistico : Manuel Goepfert
Aiuto per la traduzione : Arnaldo La Scala

Contatto : metmap@orbifly.com




FONTI E CREDITI :

   NOAA